sensor_id;sensor_type;location;lat;lon;timestamp;temperature;humidity
15930;DHT22;8064;51.142;4.780;2023-02-11T00:02:02;7.30;99.90
15930;DHT22;8064;51.142;4.780;2023-02-11T00:04:30;7.30;99.90
15930;DHT22;8064;51.142;4.780;2023-02-11T00:06:56;7.30;99.90
15930;DHT22;8064;51.142;4.780;2023-02-11T00:09:22;7.30;99.90
15930;DHT22;8064;51.142;4.780;2023-02-11T00:11:48;7.30;99.90
15930;DHT22;8064;51.142;4.780;2023-02-11T00:14:14;7.30;99.90
15930;DHT22;8064;51.142;4.780;2023-02-11T00:16:39;7.30;99.90
15930;DHT22;8064;51.142;4.780;2023-02-11T00:19:05;7.30;99.90
15930;DHT22;8064;51.142;4.780;2023-02-11T00:21:32;7.30;99.90
15930;DHT22;8064;51.142;4.780;2023-02-11T00:23:58;7.20;99.90
15930;DHT22;8064;51.142;4.780;2023-02-11T00:26:30;7.20;99.90
15930;DHT22;8064;51.142;4.780;2023-02-11T00:28:56;7.20;99.90
15930;DHT22;8064;51.142;4.780;2023-02-11T00:31:23;7.20;99.90
15930;DHT22;8064;51.142;4.780;2023-02-11T00:33:49;7.10;99.90
15930;DHT22;8064;51.142;4.780;2023-02-11T00:36:18;7.10;99.90
15930;DHT22;8064;51.142;4.780;2023-02-11T00:38:45;7.10;99.90
15930;DHT22;8064;51.142;4.780;2023-02-11T00:41:11;7.10;99.90
15930;DHT22;8064;51.142;4.780;2023-02-11T00:43:38;7.10;99.90
15930;DHT22;8064;51.142;4.780;2023-02-11T00:46:05;7.00;99.90
15930;DHT22;8064;51.142;4.780;2023-02-11T00:48:31;7.00;99.90
15930;DHT22;8064;51.142;4.780;2023-02-11T00:50:56;7.00;99.90
15930;DHT22;8064;51.142;4.780;2023-02-11T00:53:22;6.90;99.90
15930;DHT22;8064;51.142;4.780;2023-02-11T00:55:48;6.90;99.90
15930;DHT22;8064;51.142;4.780;2023-02-11T00:58:14;6.90;99.90
15930;DHT22;8064;51.142;4.780;2023-02-11T01:00:39;6.90;99.90
15930;DHT22;8064;51.142;4.780;2023-02-11T01:03:05;6.90;99.90
15930;DHT22;8064;51.142;4.780;2023-02-11T01:05:31;6.90;99.90
15930;DHT22;8064;51.142;4.780;2023-02-11T01:07:57;6.90;99.90
15930;DHT22;8064;51.142;4.780;2023-02-11T01:10:23;6.90;99.90
15930;DHT22;8064;51.142;4.780;2023-02-11T01:12:49;6.90;99.90
15930;DHT22;8064;51.142;4.780;2023-02-11T01:15:17;6.90;99.90
15930;DHT22;8064;51.142;4.780;2023-02-11T01:17:43;6.90;99.90
15930;DHT22;8064;51.142;4.780;2023-02-11T01:20:15;6.90;99.90
15930;DHT22;8064;51.142;4.780;2023-02-11T01:22:41;6.90;99.90
15930;DHT22;8064;51.142;4.780;2023-02-11T01:25:08;6.90;99.90
15930;DHT22;8064;51.142;4.780;2023-02-11T01:27:34;7.00;99.90
15930;DHT22;8064;51.142;4.780;2023-02-11T01:30:00;7.00;99.90
15930;DHT22;8064;51.142;4.780;2023-02-11T01:32:25;7.00;99.90
15930;DHT22;8064;51.142;4.780;2023-02-11T01:34:51;7.00;99.90
15930;DHT22;8064;51.142;4.780;2023-02-11T01:37:17;7.00;99.90
15930;DHT22;8064;51.142;4.780;2023-02-11T01:39:43;7.10;99.90
15930;DHT22;8064;51.142;4.780;2023-02-11T01:42:15;7.10;99.90
15930;DHT22;8064;51.142;4.780;2023-02-11T01:44:42;7.10;99.90
15930;DHT22;8064;51.142;4.780;2023-02-11T01:47:07;7.10;99.90
15930;DHT22;8064;51.142;4.780;2023-02-11T01:49:35;7.10;99.90
15930;DHT22;8064;51.142;4.780;2023-02-11T01:52:07;7.10;99.90
15930;DHT22;8064;51.142;4.780;2023-02-11T01:54:38;7.10;99.90
15930;DHT22;8064;51.142;4.780;2023-02-11T01:57:26;7.10;99.90
15930;DHT22;8064;51.142;4.780;2023-02-11T02:00:13;7.10;99.90
15930;DHT22;8064;51.142;4.780;2023-02-11T02:02:46;7.10;99.90
15930;DHT22;8064;51.142;4.780;2023-02-11T02:10:42;7.10;99.90
15930;DHT22;8064;51.142;4.780;2023-02-11T02:13:09;7.10;99.90
15930;DHT22;8064;51.142;4.780;2023-02-11T02:15:38;7.10;99.90
15930;DHT22;8064;51.142;4.780;2023-02-11T02:18:17;7.10;99.90
15930;DHT22;8064;51.142;4.780;2023-02-11T02:40:24;7.20;99.90
15930;DHT22;8064;51.142;4.780;2023-02-11T02:42:52;7.20;99.90
15930;DHT22;8064;51.142;4.780;2023-02-11T02:45:19;7.20;99.90
15930;DHT22;8064;51.142;4.780;2023-02-11T02:47:45;7.20;99.90
15930;DHT22;8064;51.142;4.780;2023-02-11T02:50:13;7.20;99.90
15930;DHT22;8064;51.142;4.780;2023-02-11T02:53:04;7.20;99.90
15930;DHT22;8064;51.142;4.780;2023-02-11T02:55:58;7.30;99.90
15930;DHT22;8064;51.142;4.780;2023-02-11T03:01:39;7.30;99.90
15930;DHT22;8064;51.142;4.780;2023-02-11T03:07:04;7.30;99.90
15930;DHT22;8064;51.142;4.780;2023-02-11T03:09:41;7.30;99.90
15930;DHT22;8064;51.142;4.780;2023-02-11T03:12:10;7.30;99.90
15930;DHT22;8064;51.142;4.780;2023-02-11T03:14:37;7.30;99.90
15930;DHT22;8064;51.142;4.780;2023-02-11T03:17:05;7.30;99.90
15930;DHT22;8064;51.142;4.780;2023-02-11T03:19:37;7.30;99.90
15930;DHT22;8064;51.142;4.780;2023-02-11T03:22:07;7.30;99.90
15930;DHT22;8064;51.142;4.780;2023-02-11T03:24:37;7.30;99.90
15930;DHT22;8064;51.142;4.780;2023-02-11T03:30:27;7.40;99.90
15930;DHT22;8064;51.142;4.780;2023-02-11T03:33:17;7.40;99.90
15930;DHT22;8064;51.142;4.780;2023-02-11T03:38:32;7.40;99.90
15930;DHT22;8064;51.142;4.780;2023-02-11T03:40:59;7.40;99.90
15930;DHT22;8064;51.142;4.780;2023-02-11T03:43:42;7.40;99.90
15930;DHT22;8064;51.142;4.780;2023-02-11T03:46:10;7.40;99.90
15930;DHT22;8064;51.142;4.780;2023-02-11T03:48:41;7.40;99.90
15930;DHT22;8064;51.142;4.780;2023-02-11T03:51:10;7.40;99.90
15930;DHT22;8064;51.142;4.780;2023-02-11T03:53:38;7.40;99.90
15930;DHT22;8064;51.142;4.780;2023-02-11T03:56:08;7.40;99.90
15930;DHT22;8064;51.142;4.780;2023-02-11T03:58:35;7.40;99.90
15930;DHT22;8064;51.142;4.780;2023-02-11T04:01:00;7.40;99.90
15930;DHT22;8064;51.142;4.780;2023-02-11T04:03:27;7.40;99.90
15930;DHT22;8064;51.142;4.780;2023-02-11T04:05:53;7.40;99.90
15930;DHT22;8064;51.142;4.780;2023-02-11T04:08:19;7.40;99.90
15930;DHT22;8064;51.142;4.780;2023-02-11T04:10:45;7.40;99.90
15930;DHT22;8064;51.142;4.780;2023-02-11T04:13:11;7.40;99.90
15930;DHT22;8064;51.142;4.780;2023-02-11T04:15:36;7.40;99.90
15930;DHT22;8064;51.142;4.780;2023-02-11T04:18:02;7.40;99.90
15930;DHT22;8064;51.142;4.780;2023-02-11T04:20:29;7.40;99.90
15930;DHT22;8064;51.142;4.780;2023-02-11T04:22:54;7.40;99.90
15930;DHT22;8064;51.142;4.780;2023-02-11T04:25:20;7.40;99.90
15930;DHT22;8064;51.142;4.780;2023-02-11T04:27:46;7.40;99.90
15930;DHT22;8064;51.142;4.780;2023-02-11T04:30:12;7.50;99.90
15930;DHT22;8064;51.142;4.780;2023-02-11T04:32:38;7.50;99.90
15930;DHT22;8064;51.142;4.780;2023-02-11T04:35:04;7.40;99.90
15930;DHT22;8064;51.142;4.780;2023-02-11T04:37:30;7.40;99.90
15930;DHT22;8064;51.142;4.780;2023-02-11T04:39:56;7.40;99.90
15930;DHT22;8064;51.142;4.780;2023-02-11T04:42:23;7.40;99.90
15930;DHT22;8064;51.142;4.780;2023-02-11T04:44:48;7.40;99.90
15930;DHT22;8064;51.142;4.780;2023-02-11T04:47:14;7.40;99.90
15930;DHT22;8064;51.142;4.780;2023-02-11T04:49:40;7.40;99.90
15930;DHT22;8064;51.142;4.780;2023-02-11T04:52:07;7.40;99.90
15930;DHT22;8064;51.142;4.780;2023-02-11T04:54:33;7.40;99.90
15930;DHT22;8064;51.142;4.780;2023-02-11T04:56:59;7.40;99.90
15930;DHT22;8064;51.142;4.780;2023-02-11T04:59:25;7.40;99.90
15930;DHT22;8064;51.142;4.780;2023-02-11T05:01:50;7.40;99.90
15930;DHT22;8064;51.142;4.780;2023-02-11T05:04:16;7.30;99.90
15930;DHT22;8064;51.142;4.780;2023-02-11T05:06:42;7.30;99.90
15930;DHT22;8064;51.142;4.780;2023-02-11T05:09:10;7.30;99.90
15930;DHT22;8064;51.142;4.780;2023-02-11T05:11:36;7.30;99.90
15930;DHT22;8064;51.142;4.780;2023-02-11T05:14:04;7.30;99.90
15930;DHT22;8064;51.142;4.780;2023-02-11T05:16:30;7.30;99.90
15930;DHT22;8064;51.142;4.780;2023-02-11T05:18:56;7.30;99.90
15930;DHT22;8064;51.142;4.780;2023-02-11T05:21:22;7.30;99.90
15930;DHT22;8064;51.142;4.780;2023-02-11T05:23:48;7.20;99.90
15930;DHT22;8064;51.142;4.780;2023-02-11T05:26:14;7.20;99.90
15930;DHT22;8064;51.142;4.780;2023-02-11T05:28:41;7.20;99.90
15930;DHT22;8064;51.142;4.780;2023-02-11T05:31:07;7.20;99.90
15930;DHT22;8064;51.142;4.780;2023-02-11T05:33:33;7.20;99.90
15930;DHT22;8064;51.142;4.780;2023-02-11T05:36:01;7.20;99.90
15930;DHT22;8064;51.142;4.780;2023-02-11T05:38:27;7.20;99.90
15930;DHT22;8064;51.142;4.780;2023-02-11T05:40:53;7.20;99.90
15930;DHT22;8064;51.142;4.780;2023-02-11T05:43:18;7.20;99.90
15930;DHT22;8064;51.142;4.780;2023-02-11T05:45:44;7.20;99.90
15930;DHT22;8064;51.142;4.780;2023-02-11T05:48:10;7.30;99.90
15930;DHT22;8064;51.142;4.780;2023-02-11T05:50:36;7.30;99.90
15930;DHT22;8064;51.142;4.780;2023-02-11T05:53:03;7.30;99.90
15930;DHT22;8064;51.142;4.780;2023-02-11T05:55:30;7.30;99.90
15930;DHT22;8064;51.142;4.780;2023-02-11T05:57:56;7.30;99.90
15930;DHT22;8064;51.142;4.780;2023-02-11T06:00:21;7.30;99.90
15930;DHT22;8064;51.142;4.780;2023-02-11T06:02:47;7.30;99.90
15930;DHT22;8064;51.142;4.780;2023-02-11T06:05:13;7.30;99.90
15930;DHT22;8064;51.142;4.780;2023-02-11T06:07:39;7.40;99.90
15930;DHT22;8064;51.142;4.780;2023-02-11T06:10:05;7.40;99.90
15930;DHT22;8064;51.142;4.780;2023-02-11T06:12:31;7.40;99.90
15930;DHT22;8064;51.142;4.780;2023-02-11T06:14:57;7.40;99.90
15930;DHT22;8064;51.142;4.780;2023-02-11T06:17:23;7.40;99.90
15930;DHT22;8064;51.142;4.780;2023-02-11T06:19:50;7.40;99.90
15930;DHT22;8064;51.142;4.780;2023-02-11T06:22:16;7.40;99.90
15930;DHT22;8064;51.142;4.780;2023-02-11T06:24:41;7.40;99.90
15930;DHT22;8064;51.142;4.780;2023-02-11T06:27:07;7.40;99.90
15930;DHT22;8064;51.142;4.780;2023-02-11T06:29:33;7.40;99.90
15930;DHT22;8064;51.142;4.780;2023-02-11T06:31:59;7.40;99.90
15930;DHT22;8064;51.142;4.780;2023-02-11T06:34:25;7.40;99.90
15930;DHT22;8064;51.142;4.780;2023-02-11T06:36:51;7.40;99.90
15930;DHT22;8064;51.142;4.780;2023-02-11T06:39:17;7.40;99.90
15930;DHT22;8064;51.142;4.780;2023-02-11T06:41:43;7.40;99.90
15930;DHT22;8064;51.142;4.780;2023-02-11T06:44:08;7.50;99.90
15930;DHT22;8064;51.142;4.780;2023-02-11T06:46:34;7.50;99.90
15930;DHT22;8064;51.142;4.780;2023-02-11T06:49:00;7.50;99.90
15930;DHT22;8064;51.142;4.780;2023-02-11T06:51:25;7.50;99.90
15930;DHT22;8064;51.142;4.780;2023-02-11T06:53:51;7.50;99.90
15930;DHT22;8064;51.142;4.780;2023-02-11T06:56:19;7.50;99.90
15930;DHT22;8064;51.142;4.780;2023-02-11T06:58:45;7.50;99.90
15930;DHT22;8064;51.142;4.780;2023-02-11T07:01:14;7.50;99.90
15930;DHT22;8064;51.142;4.780;2023-02-11T07:03:43;7.50;99.90
15930;DHT22;8064;51.142;4.780;2023-02-11T07:06:12;7.50;99.90
15930;DHT22;8064;51.142;4.780;2023-02-11T07:08:38;7.50;99.90
15930;DHT22;8064;51.142;4.780;2023-02-11T07:11:09;7.50;99.90
15930;DHT22;8064;51.142;4.780;2023-02-11T07:13:35;7.50;99.90
15930;DHT22;8064;51.142;4.780;2023-02-11T07:18:48;7.60;99.90
15930;DHT22;8064;51.142;4.780;2023-02-11T07:21:18;7.60;99.90
15930;DHT22;8064;51.142;4.780;2023-02-11T07:23:44;7.60;99.90
15930;DHT22;8064;51.142;4.780;2023-02-11T07:26:13;7.60;99.90
15930;DHT22;8064;51.142;4.780;2023-02-11T07:28:39;7.60;99.90
15930;DHT22;8064;51.142;4.780;2023-02-11T07:33:34;7.70;99.90
15930;DHT22;8064;51.142;4.780;2023-02-11T07:36:00;7.70;99.90
15930;DHT22;8064;51.142;4.780;2023-02-11T07:38:26;7.70;99.90
15930;DHT22;8064;51.142;4.780;2023-02-11T07:40:52;7.70;99.90
15930;DHT22;8064;51.142;4.780;2023-02-11T07:43:18;7.80;99.90
15930;DHT22;8064;51.142;4.780;2023-02-11T07:45:44;7.80;99.90
15930;DHT22;8064;51.142;4.780;2023-02-11T07:48:09;7.80;99.90
15930;DHT22;8064;51.142;4.780;2023-02-11T07:50:35;7.80;99.90
15930;DHT22;8064;51.142;4.780;2023-02-11T07:53:01;7.80;99.90
15930;DHT22;8064;51.142;4.780;2023-02-11T07:55:27;7.80;99.90
15930;DHT22;8064;51.142;4.780;2023-02-11T07:57:53;7.90;99.90
15930;DHT22;8064;51.142;4.780;2023-02-11T08:00:19;7.90;99.90
15930;DHT22;8064;51.142;4.780;2023-02-11T08:02:44;7.90;99.90
15930;DHT22;8064;51.142;4.780;2023-02-11T08:05:10;7.90;99.90
15930;DHT22;8064;51.142;4.780;2023-02-11T08:07:36;8.00;99.90
15930;DHT22;8064;51.142;4.780;2023-02-11T08:10:02;8.00;99.90
15930;DHT22;8064;51.142;4.780;2023-02-11T08:12:28;8.00;99.90
15930;DHT22;8064;51.142;4.780;2023-02-11T08:14:53;8.10;99.90
15930;DHT22;8064;51.142;4.780;2023-02-11T08:17:20;8.10;99.90
15930;DHT22;8064;51.142;4.780;2023-02-11T08:19:46;8.10;99.90
15930;DHT22;8064;51.142;4.780;2023-02-11T08:22:12;8.20;99.90
15930;DHT22;8064;51.142;4.780;2023-02-11T08:24:38;8.20;99.90
15930;DHT22;8064;51.142;4.780;2023-02-11T08:27:03;8.20;99.90
15930;DHT22;8064;51.142;4.780;2023-02-11T08:29:29;8.30;99.90
15930;DHT22;8064;51.142;4.780;2023-02-11T08:31:55;8.30;99.90
15930;DHT22;8064;51.142;4.780;2023-02-11T08:34:21;8.30;99.90
15930;DHT22;8064;51.142;4.780;2023-02-11T08:36:47;8.30;99.90
15930;DHT22;8064;51.142;4.780;2023-02-11T08:39:17;8.30;99.90
15930;DHT22;8064;51.142;4.780;2023-02-11T08:41:45;8.30;99.90
15930;DHT22;8064;51.142;4.780;2023-02-11T08:44:15;8.30;99.90
15930;DHT22;8064;51.142;4.780;2023-02-11T08:46:41;8.40;99.90
15930;DHT22;8064;51.142;4.780;2023-02-11T08:49:07;8.40;99.90
15930;DHT22;8064;51.142;4.780;2023-02-11T08:51:33;8.40;99.90
15930;DHT22;8064;51.142;4.780;2023-02-11T08:53:59;8.30;99.90
15930;DHT22;8064;51.142;4.780;2023-02-11T08:56:26;8.30;99.90
15930;DHT22;8064;51.142;4.780;2023-02-11T08:58:52;8.40;99.90
15930;DHT22;8064;51.142;4.780;2023-02-11T09:01:21;8.40;99.90
15930;DHT22;8064;51.142;4.780;2023-02-11T09:03:47;8.40;99.90
15930;DHT22;8064;51.142;4.780;2023-02-11T09:06:14;8.40;99.90
15930;DHT22;8064;51.142;4.780;2023-02-11T09:08:42;8.40;99.90
15930;DHT22;8064;51.142;4.780;2023-02-11T09:11:09;8.50;99.90
15930;DHT22;8064;51.142;4.780;2023-02-11T09:13:35;8.60;99.90
15930;DHT22;8064;51.142;4.780;2023-02-11T09:16:01;8.60;99.90
15930;DHT22;8064;51.142;4.780;2023-02-11T09:18:28;8.60;99.90
15930;DHT22;8064;51.142;4.780;2023-02-11T09:21:02;8.60;99.90
15930;DHT22;8064;51.142;4.780;2023-02-11T09:23:28;8.60;99.90
15930;DHT22;8064;51.142;4.780;2023-02-11T09:25:53;8.60;99.90
15930;DHT22;8064;51.142;4.780;2023-02-11T09:28:19;8.60;99.90
15930;DHT22;8064;51.142;4.780;2023-02-11T09:30:45;8.60;99.90
15930;DHT22;8064;51.142;4.780;2023-02-11T09:33:10;8.70;99.90
15930;DHT22;8064;51.142;4.780;2023-02-11T09:35:36;8.70;99.90
15930;DHT22;8064;51.142;4.780;2023-02-11T09:38:02;8.70;99.90
15930;DHT22;8064;51.142;4.780;2023-02-11T09:40:28;8.70;99.90
15930;DHT22;8064;51.142;4.780;2023-02-11T09:43:15;8.70;99.90
15930;DHT22;8064;51.142;4.780;2023-02-11T09:45:44;8.70;99.90
15930;DHT22;8064;51.142;4.780;2023-02-11T09:48:14;8.70;99.90
15930;DHT22;8064;51.142;4.780;2023-02-11T09:50:49;8.70;99.90
15930;DHT22;8064;51.142;4.780;2023-02-11T09:55:48;8.80;99.90
15930;DHT22;8064;51.142;4.780;2023-02-11T10:00:56;8.90;99.90
15930;DHT22;8064;51.142;4.780;2023-02-11T10:06:40;8.90;99.90
15930;DHT22;8064;51.142;4.780;2023-02-11T10:14:56;9.00;99.90
15930;DHT22;8064;51.142;4.780;2023-02-11T10:17:36;9.00;99.90
15930;DHT22;8064;51.142;4.780;2023-02-11T10:20:22;9.00;99.90
15930;DHT22;8064;51.142;4.780;2023-02-11T10:23:12;9.10;99.90
15930;DHT22;8064;51.142;4.780;2023-02-11T10:25:58;9.10;99.90
15930;DHT22;8064;51.142;4.780;2023-02-11T10:28:30;9.20;99.90
15930;DHT22;8064;51.142;4.780;2023-02-11T10:31:18;9.20;99.90
15930;DHT22;8064;51.142;4.780;2023-02-11T10:33:58;9.20;99.90
15930;DHT22;8064;51.142;4.780;2023-02-11T10:36:29;9.20;99.90
15930;DHT22;8064;51.142;4.780;2023-02-11T10:38:57;9.30;99.90
15930;DHT22;8064;51.142;4.780;2023-02-11T10:41:31;9.30;99.90
15930;DHT22;8064;51.142;4.780;2023-02-11T10:43:59;9.30;99.90
15930;DHT22;8064;51.142;4.780;2023-02-11T10:46:30;9.20;99.90
15930;DHT22;8064;51.142;4.780;2023-02-11T10:48:57;9.30;99.90
15930;DHT22;8064;51.142;4.780;2023-02-11T10:51:26;9.20;99.90
15930;DHT22;8064;51.142;4.780;2023-02-11T10:54:15;9.20;99.90
15930;DHT22;8064;51.142;4.780;2023-02-11T10:56:47;9.20;99.90
15930;DHT22;8064;51.142;4.780;2023-02-11T11:05:02;9.20;99.90
15930;DHT22;8064;51.142;4.780;2023-02-11T11:07:30;9.20;99.90
15930;DHT22;8064;51.142;4.780;2023-02-11T11:10:28;9.30;99.90
15930;DHT22;8064;51.142;4.780;2023-02-11T11:12:54;9.30;99.90
15930;DHT22;8064;51.142;4.780;2023-02-11T11:15:31;9.30;99.90
15930;DHT22;8064;51.142;4.780;2023-02-11T11:18:15;9.40;99.90
15930;DHT22;8064;51.142;4.780;2023-02-11T11:20:56;9.40;99.90
15930;DHT22;8064;51.142;4.780;2023-02-11T11:23:23;9.50;99.90
15930;DHT22;8064;51.142;4.780;2023-02-11T11:26:07;9.50;99.90
15930;DHT22;8064;51.142;4.780;2023-02-11T11:28:40;9.50;99.90
15930;DHT22;8064;51.142;4.780;2023-02-11T11:31:23;9.50;99.90
15930;DHT22;8064;51.142;4.780;2023-02-11T11:33:50;9.60;99.90
15930;DHT22;8064;51.142;4.780;2023-02-11T11:36:20;9.60;99.90
15930;DHT22;8064;51.142;4.780;2023-02-11T11:41:30;9.70;99.90
15930;DHT22;8064;51.142;4.780;2023-02-11T11:46:29;9.80;99.90
15930;DHT22;8064;51.142;4.780;2023-02-11T11:51:55;9.80;99.90
15930;DHT22;8064;51.142;4.780;2023-02-11T11:54:23;9.80;99.90
15930;DHT22;8064;51.142;4.780;2023-02-11T11:56:59;9.80;99.90
15930;DHT22;8064;51.142;4.780;2023-02-11T11:59:27;9.90;99.90
15930;DHT22;8064;51.142;4.780;2023-02-11T12:04:36;9.90;99.90
15930;DHT22;8064;51.142;4.780;2023-02-11T12:10:30;9.90;99.90
15930;DHT22;8064;51.142;4.780;2023-02-11T12:21:55;10.00;99.90
15930;DHT22;8064;51.142;4.780;2023-02-11T12:24:45;10.10;99.90
15930;DHT22;8064;51.142;4.780;2023-02-11T12:27:22;10.10;99.90
15930;DHT22;8064;51.142;4.780;2023-02-11T12:32:55;10.10;99.90
15930;DHT22;8064;51.142;4.780;2023-02-11T12:35:30;10.10;99.90
15930;DHT22;8064;51.142;4.780;2023-02-11T12:41:26;10.30;99.90
15930;DHT22;8064;51.142;4.780;2023-02-11T12:44:25;10.30;99.90
15930;DHT22;8064;51.142;4.780;2023-02-11T12:47:07;10.30;99.90
15930;DHT22;8064;51.142;4.780;2023-02-11T12:49:39;10.30;99.90
15930;DHT22;8064;51.142;4.780;2023-02-11T12:55:00;10.30;99.90
15930;DHT22;8064;51.142;4.780;2023-02-11T12:57:30;10.30;99.90
15930;DHT22;8064;51.142;4.780;2023-02-11T13:03:12;10.30;99.90
15930;DHT22;8064;51.142;4.780;2023-02-11T13:05:46;10.40;99.90
15930;DHT22;8064;51.142;4.780;2023-02-11T13:08:43;10.40;99.90
15930;DHT22;8064;51.142;4.780;2023-02-11T13:11:14;10.40;99.90
15930;DHT22;8064;51.142;4.780;2023-02-11T13:19:43;10.40;99.90
15930;DHT22;8064;51.142;4.780;2023-02-11T13:22:17;10.40;99.90
15930;DHT22;8064;51.142;4.780;2023-02-11T13:24:49;10.50;99.90
15930;DHT22;8064;51.142;4.780;2023-02-11T13:27:21;10.50;99.90
15930;DHT22;8064;51.142;4.780;2023-02-11T13:33:04;10.60;99.90
15930;DHT22;8064;51.142;4.780;2023-02-11T13:35:35;10.60;99.90
15930;DHT22;8064;51.142;4.780;2023-02-11T13:38:05;10.60;99.90
15930;DHT22;8064;51.142;4.780;2023-02-11T13:40:38;10.60;99.90
15930;DHT22;8064;51.142;4.780;2023-02-11T13:43:06;10.60;99.90
15930;DHT22;8064;51.142;4.780;2023-02-11T13:45:45;10.60;99.90
15930;DHT22;8064;51.142;4.780;2023-02-11T13:48:30;10.70;99.90
15930;DHT22;8064;51.142;4.780;2023-02-11T13:51:02;10.70;99.90
15930;DHT22;8064;51.142;4.780;2023-02-11T13:53:44;10.60;99.90
15930;DHT22;8064;51.142;4.780;2023-02-11T13:56:27;10.60;99.90
15930;DHT22;8064;51.142;4.780;2023-02-11T13:58:56;10.60;99.90
15930;DHT22;8064;51.142;4.780;2023-02-11T14:04:37;10.50;99.90
15930;DHT22;8064;51.142;4.780;2023-02-11T14:14:00;10.50;99.90
15930;DHT22;8064;51.142;4.780;2023-02-11T14:16:26;10.50;99.90
15930;DHT22;8064;51.142;4.780;2023-02-11T14:21:21;10.50;99.90
15930;DHT22;8064;51.142;4.780;2023-02-11T14:23:49;10.50;99.90
15930;DHT22;8064;51.142;4.780;2023-02-11T14:31:53;10.60;99.90
15930;DHT22;8064;51.142;4.780;2023-02-11T14:43:23;10.60;99.90
15930;DHT22;8064;51.142;4.780;2023-02-11T14:45:52;10.60;99.90
15930;DHT22;8064;51.142;4.780;2023-02-11T14:48:24;10.50;99.90
15930;DHT22;8064;51.142;4.780;2023-02-11T14:50:56;10.50;99.90
15930;DHT22;8064;51.142;4.780;2023-02-11T14:53:24;10.50;99.90
15930;DHT22;8064;51.142;4.780;2023-02-11T14:55:53;10.50;99.90
15930;DHT22;8064;51.142;4.780;2023-02-11T14:58:22;10.50;99.90
15930;DHT22;8064;51.142;4.780;2023-02-11T15:01:01;10.60;99.90
15930;DHT22;8064;51.142;4.780;2023-02-11T15:03:29;10.60;99.90
15930;DHT22;8064;51.142;4.780;2023-02-11T15:05:58;10.60;99.90
15930;DHT22;8064;51.142;4.780;2023-02-11T15:08:25;10.60;99.90
15930;DHT22;8064;51.142;4.780;2023-02-11T15:10:51;10.70;99.90
15930;DHT22;8064;51.142;4.780;2023-02-11T15:13:20;10.70;99.90
15930;DHT22;8064;51.142;4.780;2023-02-11T15:15:49;10.70;99.90
15930;DHT22;8064;51.142;4.780;2023-02-11T15:18:22;10.70;99.90
15930;DHT22;8064;51.142;4.780;2023-02-11T15:20:49;10.70;99.90
15930;DHT22;8064;51.142;4.780;2023-02-11T15:23:22;10.70;99.90
15930;DHT22;8064;51.142;4.780;2023-02-11T15:25:49;10.70;99.90
15930;DHT22;8064;51.142;4.780;2023-02-11T15:31:13;10.70;99.90
15930;DHT22;8064;51.142;4.780;2023-02-11T15:33:39;10.70;99.90
15930;DHT22;8064;51.142;4.780;2023-02-11T15:36:05;10.70;99.90
15930;DHT22;8064;51.142;4.780;2023-02-11T15:38:31;10.70;99.90
15930;DHT22;8064;51.142;4.780;2023-02-11T15:41:00;10.70;99.90
15930;DHT22;8064;51.142;4.780;2023-02-11T15:46:09;10.60;99.90
15930;DHT22;8064;51.142;4.780;2023-02-11T15:48:41;10.60;99.90
15930;DHT22;8064;51.142;4.780;2023-02-11T15:54:03;10.60;99.90
15930;DHT22;8064;51.142;4.780;2023-02-11T15:56:46;10.50;99.90
15930;DHT22;8064;51.142;4.780;2023-02-11T15:59:32;10.50;99.90
15930;DHT22;8064;51.142;4.780;2023-02-11T16:02:19;10.50;99.90
15930;DHT22;8064;51.142;4.780;2023-02-11T16:05:04;10.50;99.90
15930;DHT22;8064;51.142;4.780;2023-02-11T16:10:26;10.40;99.90
15930;DHT22;8064;51.142;4.780;2023-02-11T16:15:49;10.40;99.90
15930;DHT22;8064;51.142;4.780;2023-02-11T16:18:29;10.40;99.90
15930;DHT22;8064;51.142;4.780;2023-02-11T16:20:57;10.40;99.90
15930;DHT22;8064;51.142;4.780;2023-02-11T16:23:27;10.30;99.90
15930;DHT22;8064;51.142;4.780;2023-02-11T16:25:59;10.30;99.90
15930;DHT22;8064;51.142;4.780;2023-02-11T16:28:25;10.30;99.90
15930;DHT22;8064;51.142;4.780;2023-02-11T16:30:55;10.20;99.90
15930;DHT22;8064;51.142;4.780;2023-02-11T16:33:22;10.30;99.90
15930;DHT22;8064;51.142;4.780;2023-02-11T16:35:48;10.20;99.90
15930;DHT22;8064;51.142;4.780;2023-02-11T16:38:15;10.20;99.90
15930;DHT22;8064;51.142;4.780;2023-02-11T16:40:42;10.20;99.90
15930;DHT22;8064;51.142;4.780;2023-02-11T16:43:09;10.20;99.90
15930;DHT22;8064;51.142;4.780;2023-02-11T16:45:37;10.20;99.90
15930;DHT22;8064;51.142;4.780;2023-02-11T16:48:06;10.20;99.90
15930;DHT22;8064;51.142;4.780;2023-02-11T16:50:33;10.10;99.90
15930;DHT22;8064;51.142;4.780;2023-02-11T16:52:59;10.10;99.90
15930;DHT22;8064;51.142;4.780;2023-02-11T16:55:27;10.10;99.90
15930;DHT22;8064;51.142;4.780;2023-02-11T16:57:53;10.10;99.90
15930;DHT22;8064;51.142;4.780;2023-02-11T17:00:19;10.10;99.90
15930;DHT22;8064;51.142;4.780;2023-02-11T17:02:45;10.10;99.90
15930;DHT22;8064;51.142;4.780;2023-02-11T17:05:28;10.10;99.90
15930;DHT22;8064;51.142;4.780;2023-02-11T17:07:53;10.10;99.90
15930;DHT22;8064;51.142;4.780;2023-02-11T17:10:22;10.00;99.90
15930;DHT22;8064;51.142;4.780;2023-02-11T17:12:48;10.00;99.90
15930;DHT22;8064;51.142;4.780;2023-02-11T17:15:15;10.00;99.90
15930;DHT22;8064;51.142;4.780;2023-02-11T17:17:41;10.00;99.90
15930;DHT22;8064;51.142;4.780;2023-02-11T17:20:09;10.00;99.90
15930;DHT22;8064;51.142;4.780;2023-02-11T17:22:35;10.00;99.90
15930;DHT22;8064;51.142;4.780;2023-02-11T17:25:01;10.00;99.90
15930;DHT22;8064;51.142;4.780;2023-02-11T17:27:27;10.00;99.90
15930;DHT22;8064;51.142;4.780;2023-02-11T17:29:53;10.00;99.90
15930;DHT22;8064;51.142;4.780;2023-02-11T17:32:18;10.00;99.90
15930;DHT22;8064;51.142;4.780;2023-02-11T17:34:44;10.00;99.90
15930;DHT22;8064;51.142;4.780;2023-02-11T17:37:10;10.00;99.90
15930;DHT22;8064;51.142;4.780;2023-02-11T17:39:37;10.00;99.90
15930;DHT22;8064;51.142;4.780;2023-02-11T17:42:03;10.10;99.90
15930;DHT22;8064;51.142;4.780;2023-02-11T17:44:31;10.00;99.90
15930;DHT22;8064;51.142;4.780;2023-02-11T17:46:57;10.00;99.90
15930;DHT22;8064;51.142;4.780;2023-02-11T17:49:23;10.00;99.90
15930;DHT22;8064;51.142;4.780;2023-02-11T17:51:48;10.00;99.90
15930;DHT22;8064;51.142;4.780;2023-02-11T17:54:16;10.10;99.90
15930;DHT22;8064;51.142;4.780;2023-02-11T17:56:43;10.00;99.90
15930;DHT22;8064;51.142;4.780;2023-02-11T17:59:10;10.10;99.90
15930;DHT22;8064;51.142;4.780;2023-02-11T18:01:37;10.10;99.90
15930;DHT22;8064;51.142;4.780;2023-02-11T18:04:04;10.00;99.90
15930;DHT22;8064;51.142;4.780;2023-02-11T18:06:30;10.00;99.90
15930;DHT22;8064;51.142;4.780;2023-02-11T18:08:59;10.00;99.90
15930;DHT22;8064;51.142;4.780;2023-02-11T18:11:27;10.00;99.90
15930;DHT22;8064;51.142;4.780;2023-02-11T18:13:55;10.00;99.90
15930;DHT22;8064;51.142;4.780;2023-02-11T18:16:23;10.00;99.90
15930;DHT22;8064;51.142;4.780;2023-02-11T18:18:49;10.00;99.90
15930;DHT22;8064;51.142;4.780;2023-02-11T18:21:18;10.00;99.90
15930;DHT22;8064;51.142;4.780;2023-02-11T18:23:44;10.00;99.90
15930;DHT22;8064;51.142;4.780;2023-02-11T18:26:11;10.00;99.90
15930;DHT22;8064;51.142;4.780;2023-02-11T18:28:38;10.00;99.90
15930;DHT22;8064;51.142;4.780;2023-02-11T18:31:04;10.00;99.90
15930;DHT22;8064;51.142;4.780;2023-02-11T18:33:30;10.00;99.90
15930;DHT22;8064;51.142;4.780;2023-02-11T18:35:56;10.00;99.90
15930;DHT22;8064;51.142;4.780;2023-02-11T18:38:22;10.00;99.90